Time;durP1;ratioP1;P1;durP2;ratioP2;P2;SDS_P1;SDS_P2;PMS_P1;PMS_P2;Temp;Humidity;BMP_temperature;BMP_pressure;BME280_temperature;BME280_humidity;BME280_pressure;Samples;Min_cycle;Max_cycle;Signal;HPM_P1;HPM_P2
2022/05/11 00:00:55;;;;;;;;;;;;;;;11.70;92.89;98448.19;3209044;23;19982;-90
2022/05/11 00:02:10;;;;;;;;;;;;;;;11.72;92.87;98445.53;3208717;23;19952;-90
2022/05/11 00:03:26;;;;;;;;;;;;;;;11.73;92.69;98448.13;3212322;23;19924;-90
2022/05/11 00:04:43;;;;;;;;;;;;;;;11.71;93.02;98446.44;3212004;23;19967;-91
2022/05/11 00:05:58;;;;;;;;;;;;;;;11.67;92.87;98448.28;3209999;23;19927;-90
2022/05/11 00:07:13;;;;;;;;;;;;;;;11.63;93.77;98444.06;3209916;23;19927;-91
2022/05/11 00:08:29;;;;;;;;;;;;;;;11.63;93.90;98444.06;3210008;23;19967;-92
2022/05/11 00:09:44;;;;;;;;;;;;;;;11.62;94.14;98447.59;3210144;23;20398;-90
2022/05/11 00:11:01;;;;;;;;;;;;;;;11.61;94.19;98434.53;3209084;23;19995;-90
2022/05/11 00:12:17;;;;;;;;;;;;;;;11.62;93.52;98441.47;3209368;23;19954;-89
2022/05/11 00:13:33;;;;;;;;;;;;;;;11.60;94.49;98444.16;3209405;23;19924;-90
2022/05/11 00:14:50;;;;;;;;;;;;;;;11.58;94.27;98441.59;3211054;23;20303;-92
2022/05/11 00:16:05;;;;;;;;;;;;;;;11.59;94.08;98438.06;3211614;23;19932;-90
2022/05/11 00:17:21;;;;;;;;;;;;;;;11.60;94.48;98438.94;3212178;23;19927;-89
2022/05/11 00:18:37;;;;;;;;;;;;;;;11.59;94.38;98432.81;3213258;23;19956;-90
2022/05/11 00:19:52;;;;;;;;;;;;;;;11.61;94.29;98432.78;3219204;23;19950;-90
2022/05/11 00:21:08;;;;;;;;;;;;;;;11.58;94.69;98431.09;3219049;23;19967;-89
2022/05/11 00:22:24;;;;;;;;;;;;;;;11.59;94.93;98431.94;3218795;23;19924;-89
2022/05/11 00:23:40;;;;;;;;;;;;;;;11.58;94.89;98435.47;3212739;23;19924;-91
2022/05/11 00:24:55;;;;;;;;;;;;;;;11.57;94.90;98434.63;3209914;23;19999;-90
2022/05/11 00:26:10;;;;;;;;;;;;;;;11.57;94.65;98434.63;3212534;23;19966;-90
2022/05/11 00:27:26;;;;;;;;;;;;;;;11.58;94.89;98435.47;3223468;23;19920;-91
2022/05/11 00:28:41;;;;;;;;;;;;;;;11.58;95.03;98433.72;3223317;23;19931;-91
2022/05/11 00:29:57;;;;;;;;;;;;;;;11.58;94.80;98435.47;3223683;23;19968;-90
2022/05/11 00:31:12;;;;;;;;;;;;;;;11.58;95.26;98436.34;3211357;23;19946;-90
2022/05/11 00:32:28;;;;;;;;;;;;;;;11.60;94.35;98436.31;3210739;23;19924;-90
2022/05/11 00:33:43;;;;;;;;;;;;;;;11.58;95.26;98427.59;3210484;23;19976;-90
2022/05/11 00:34:59;;;;;;;;;;;;;;;11.60;95.13;98433.69;3210142;23;19924;-90
2022/05/11 00:36:14;;;;;;;;;;;;;;;11.60;94.96;98438.94;3210231;23;19927;-91
2022/05/11 00:37:30;;;;;;;;;;;;;;;11.61;94.91;98431.91;3209825;23;19931;-92
2022/05/11 00:38:47;;;;;;;;;;;;;;;11.62;94.59;98441.47;3210061;23;20327;-90
2022/05/11 00:40:03;;;;;;;;;;;;;;;11.62;94.75;98437.09;3210013;23;19923;-90
2022/05/11 00:41:18;;;;;;;;;;;;;;;11.62;94.80;98429.25;3210262;23;20457;-90
2022/05/11 00:42:34;;;;;;;;;;;;;;;11.61;94.45;98427.53;3210035;23;19969;-90
2022/05/11 00:43:54;;;;;;;;;;;;;;;11.56;95.50;98430.28;3210499;23;19924;-90
2022/05/11 00:45:09;;;;;;;;;;;;;;;11.55;95.11;98435.56;3210408;23;19931;-90
2022/05/11 00:46:43;;;;;;;;;;;;;;;11.52;95.74;98428.66;3210595;23;20295;-90
2022/05/11 00:49:33;;;;;;;;;;;;;;;11.50;95.66;98425.22;3218030;23;20430;-92
2022/05/11 00:49:43;;;;;;;;;;;;;;;11.48;95.27;98429.66;3212664;23;19923;-89
2022/05/11 00:50:58;;;;;;;;;;;;;;;11.47;95.35;98425.34;3213749;23;19923;-90
2022/05/11 00:52:13;;;;;;;;;;;;;;;11.47;95.16;98424.50;3212593;23;20193;-91
2022/05/11 00:53:29;;;;;;;;;;;;;;;11.46;95.55;98431.47;3211053;23;20699;-91
2022/05/11 00:54:47;;;;;;;;;;;;;;;11.42;95.62;98428.09;3210375;23;19924;-90
2022/05/11 00:56:03;;;;;;;;;;;;;;;11.41;95.54;98434.25;3210570;23;19931;-91
2022/05/11 00:57:20;;;;;;;;;;;;;;;11.37;95.57;98430.03;3210612;23;19955;-90
2022/05/11 00:58:37;;;;;;;;;;;;;;;11.35;95.39;98426.59;3210101;23;19935;-90
2022/05/11 00:59:53;;;;;;;;;;;;;;;11.34;95.64;98426.63;3209591;23;19924;-91
2022/05/11 01:01:09;;;;;;;;;;;;;;;11.25;95.74;98433.03;3209547;23;20351;-91
2022/05/11 01:02:25;;;;;;;;;;;;;;;11.21;95.91;98424.38;3209681;23;19924;-91
2022/05/11 01:03:45;;;;;;;;;;;;;;;11.16;96.03;98421.06;3209610;23;19951;-91
2022/05/11 01:05:02;;;;;;;;;;;;;;;11.11;96.54;98420.34;3209379;23;19924;-90
2022/05/11 01:06:19;;;;;;;;;;;;;;;11.09;96.39;98428.25;3209395;23;19947;-91
2022/05/11 01:07:35;;;;;;;;;;;;;;;11.07;96.21;98427.44;3209407;23;19991;-90
2022/05/11 01:08:50;;;;;;;;;;;;;;;11.04;96.08;98424.91;3210178;23;19924;-91
2022/05/11 01:10:08;;;;;;;;;;;;;;;11.03;95.74;98420.56;3209994;23;19939;-90
2022/05/11 01:11:23;;;;;;;;;;;;;;;11.00;95.65;98420.66;3210592;23;19923;-90
2022/05/11 01:12:40;;;;;;;;;;;;;;;11.00;95.11;98423.28;3210195;23;20488;-91
2022/05/11 01:13:57;;;;;;;;;;;;;;;10.94;95.42;98423.47;3210225;23;20379;-90
2022/05/11 01:15:14;;;;;;;;;;;;;;;10.88;95.72;98417.50;3209903;23;19924;-89
2022/05/11 01:16:29;;;;;;;;;;;;;;;10.87;95.68;98418.41;3210837;23;19920;-90
2022/05/11 01:17:45;;;;;;;;;;;;;;;10.84;95.67;98421.13;3210517;23;19923;-89
2022/05/11 01:19:00;;;;;;;;;;;;;;;10.80;95.89;98422.13;3211035;23;19924;-91
2022/05/11 01:20:18;;;;;;;;;;;;;;;10.77;95.78;98410.88;3210172;23;19924;-90
2022/05/11 01:21:40;;;;;;;;;;;;;;;10.74;95.32;98420.53;3209845;23;19947;-90
2022/05/11 01:23:14;;;;;;;;;;;;;;;10.72;95.19;98419.72;3209960;23;20034;-90
2022/05/11 01:24:34;;;;;;;;;;;;;;;10.69;94.86;98411.09;3210335;23;20227;-91
2022/05/11 01:25:50;;;;;;;;;;;;;;;10.66;94.90;98419.88;3208816;23;19930;-90
2022/05/11 01:27:26;;;;;;;;;;;;;;;10.60;95.21;98407.81;3209536;23;19934;-91
2022/05/11 01:28:43;;;;;;;;;;;;;;;10.54;95.44;98415.88;3214904;23;19931;-89
2022/05/11 01:30:01;;;;;;;;;;;;;;;10.51;94.97;98415.09;3209232;23;19943;-91
2022/05/11 01:31:17;;;;;;;;;;;;;;;10.47;95.33;98416.09;3209662;23;19934;-91
2022/05/11 01:32:32;;;;;;;;;;;;;;;10.43;95.93;98418.78;3209603;23;19931;-89
2022/05/11 01:33:49;;;;;;;;;;;;;;;10.37;95.63;98415.47;3209449;23;19928;-91
2022/05/11 01:35:11;;;;;;;;;;;;;;;10.32;95.18;98420.81;3210131;23;19919;-91
2022/05/11 01:36:30;;;;;;;;;;;;;;;10.33;95.24;98414.69;3210860;23;19924;-90
2022/05/11 01:38:08;;;;;;;;;;;;;;;10.32;95.49;98416.41;3211097;23;19920;-92
2022/05/11 01:39:24;;;;;;;;;;;;;;;10.31;95.85;98416.47;3210486;23;19924;-90
2022/05/11 01:40:39;;;;;;;;;;;;;;;10.31;95.93;98413.88;3210013;23;20001;-92
2022/05/11 01:41:55;;;;;;;;;;;;;;;10.28;95.23;98413.94;3211474;23;19923;-91
2022/05/11 01:43:15;;;;;;;;;;;;;;;10.28;95.24;98413.94;3211633;23;19930;-92
2022/05/11 01:44:30;;;;;;;;;;;;;;;10.26;95.06;98415.72;3213025;23;19924;-90
2022/05/11 01:45:46;;;;;;;;;;;;;;;10.20;95.46;98415.91;3210459;23;19920;-90
2022/05/11 01:47:02;;;;;;;;;;;;;;;10.16;96.38;98416.00;3211100;23;20161;-89
2022/05/11 01:48:18;;;;;;;;;;;;;;;10.13;96.08;98409.97;3210623;23;19924;-90
2022/05/11 01:49:33;;;;;;;;;;;;;;;10.13;96.56;98409.97;3215467;23;20208;-90
2022/05/11 01:50:49;;;;;;;;;;;;;;;10.15;96.24;98406.44;3210838;23;19924;-90
2022/05/11 01:52:05;;;;;;;;;;;;;;;10.15;96.49;98411.66;3209900;23;19954;-89
2022/05/11 01:53:20;;;;;;;;;;;;;;;10.17;96.73;98411.59;3210911;23;20245;-89
2022/05/11 01:54:36;;;;;;;;;;;;;;;10.17;96.46;98407.25;3210741;23;20755;-90
2022/05/11 01:55:52;;;;;;;;;;;;;;;10.18;96.26;98402.84;3210562;23;19924;-89
2022/05/11 01:57:07;;;;;;;;;;;;;;;10.17;96.54;98404.63;3210302;23;19924;-89
2022/05/11 01:58:23;;;;;;;;;;;;;;;10.18;97.06;98402.84;3210212;23;19928;-90
2022/05/11 01:59:39;;;;;;;;;;;;;;;10.17;97.11;98407.25;3210161;23;19947;-90
2022/05/11 02:00:54;;;;;;;;;;;;;;;10.18;96.98;98408.09;3210237;23;20027;-90
2022/05/11 02:02:10;;;;;;;;;;;;;;;10.17;97.11;98402.00;3209638;23;19931;-91
2022/05/11 02:03:25;;;;;;;;;;;;;;;10.19;96.55;98399.34;3210272;23;19928;-89
2022/05/11 02:07:52;;;;;;;;;;;;;;;10.13;97.43;98400.38;3211472;23;19928;-90
2022/05/11 02:09:07;;;;;;;;;;;;;;;10.09;97.47;98408.34;3210837;23;19959;-90
2022/05/11 02:10:25;;;;;;;;;;;;;;;10.06;98.14;98403.19;3210924;23;19920;-89
2022/05/11 02:11:40;;;;;;;;;;;;;;;10.04;98.55;98408.47;3212098;23;19959;-89
2022/05/11 02:12:58;;;;;;;;;;;;;;;10.03;98.16;98394.53;3215188;23;20345;-90
2022/05/11 02:14:13;;;;;;;;;;;;;;;10.01;97.69;98400.72;3212087;23;20351;-90
2022/05/11 02:15:29;;;;;;;;;;;;;;;10.00;97.51;98402.44;3211827;23;19923;-90
2022/05/11 02:16:44;;;;;;;;;;;;;;;9.99;97.53;98399.91;3210987;23;19923;-90
2022/05/11 02:18:00;;;;;;;;;;;;;;;9.98;97.55;98396.41;3210524;23;20014;-91
2022/05/11 02:19:15;;;;;;;;;;;;;;;9.98;97.46;98406.88;3210686;23;19931;-90
2022/05/11 02:20:30;;;;;;;;;;;;;;;9.97;97.27;98405.16;3210359;23;20299;-91
2022/05/11 02:21:46;;;;;;;;;;;;;;;9.96;97.46;98405.19;3210883;23;19928;-90
2022/05/11 02:23:02;;;;;;;;;;;;;;;9.95;97.06;98411.31;3209215;23;19924;-92
2022/05/11 02:24:18;;;;;;;;;;;;;;;9.94;97.20;98409.59;3209831;23;20418;-91
2022/05/11 02:25:34;;;;;;;;;;;;;;;9.92;97.13;98406.16;3209800;23;19978;-91
2022/05/11 02:26:49;;;;;;;;;;;;;;;9.91;97.37;98409.69;3209838;23;19930;-91
2022/05/11 02:28:05;;;;;;;;;;;;;;;9.87;97.39;98404.53;3209493;23;19930;-90
2022/05/11 02:29:21;;;;;;;;;;;;;;;9.86;97.53;98402.81;3208575;23;19923;-91
2022/05/11 02:30:37;;;;;;;;;;;;;;;9.82;98.36;98408.16;3199587;23;19919;-92
2022/05/11 02:31:52;;;;;;;;;;;;;;;9.79;98.19;98406.47;3209649;23;19930;-92
2022/05/11 02:33:08;;;;;;;;;;;;;;;9.78;98.17;98410.00;3210568;23;20267;-90
2022/05/11 02:35:57;;;;;;;;;;;;;;;9.73;97.83;98402.25;3210931;23;19927;-90
2022/05/11 02:37:13;;;;;;;;;;;;;;;9.70;97.72;98410.19;3210806;23;19960;-91
2022/05/11 02:38:29;;;;;;;;;;;;;;;9.68;97.84;98403.28;3210716;23;20240;-90
2022/05/11 02:39:45;;;;;;;;;;;;;;;9.69;98.24;98405.00;3211266;23;19928;-93
2022/05/11 02:41:01;;;;;;;;;;;;;;;9.65;98.08;98401.63;3210384;23;19940;-92
2022/05/11 02:42:18;;;;;;;;;;;;;;;9.64;97.98;98399.03;3210615;23;19955;-92
2022/05/11 02:43:34;;;;;;;;;;;;;;;9.61;97.87;98405.19;3211078;23;19924;-90
2022/05/11 02:44:49;;;;;;;;;;;;;;;9.59;98.31;98405.25;3211527;23;19931;-91
2022/05/11 02:46:05;;;;;;;;;;;;;;;9.59;98.20;98404.38;3211739;23;20515;-92
2022/05/11 02:47:20;;;;;;;;;;;;;;;9.57;98.03;98407.03;3211406;23;19947;-90
2022/05/11 02:48:36;;;;;;;;;;;;;;;9.55;97.25;98400.97;3217530;23;20234;-91
2022/05/11 02:49:51;;;;;;;;;;;;;;;9.52;97.37;98398.44;3212931;23;19965;-91
2022/05/11 02:51:08;;;;;;;;;;;;;;;9.52;97.96;98408.88;3211196;23;19924;-91
2022/05/11 02:52:23;;;;;;;;;;;;;;;9.47;97.32;98403.75;3212552;23;19924;-92
2022/05/11 02:53:39;;;;;;;;;;;;;;;9.46;97.31;98411.66;3211484;23;19930;-91
2022/05/11 02:54:54;;;;;;;;;;;;;;;9.41;97.55;98406.53;3211033;23;19930;-91
2022/05/11 02:56:10;;;;;;;;;;;;;;;9.40;97.63;98410.03;3211816;23;20254;-91
2022/05/11 02:57:25;;;;;;;;;;;;;;;9.38;97.53;98414.47;3212678;23;19982;-90
2022/05/11 02:58:41;;;;;;;;;;;;;;;9.33;97.45;98404.09;3212304;23;19923;-90
2022/05/11 02:59:57;;;;;;;;;;;;;;;9.30;97.43;98409.41;3215787;23;19975;-91
2022/05/11 03:01:13;;;;;;;;;;;;;;;9.29;97.60;98409.44;3219645;23;19924;-91
2022/05/11 03:02:29;;;;;;;;;;;;;;;9.25;97.86;98406.03;3219380;23;19967;-90
2022/05/11 03:03:44;;;;;;;;;;;;;;;9.24;98.27;98403.47;3218265;23;19947;-90
2022/05/11 03:05:00;;;;;;;;;;;;;;;9.16;97.80;98406.25;3212712;23;20378;-91
2022/05/11 03:06:15;;;;;;;;;;;;;;;9.14;98.53;98416.72;3210866;23;19928;-90
2022/05/11 03:07:30;;;;;;;;;;;;;;;9.11;98.99;98408.97;3216852;23;20204;-92
2022/05/11 03:08:46;;;;;;;;;;;;;;;9.08;99.34;98409.03;3224299;23;19934;-92
2022/05/11 03:10:02;;;;;;;;;;;;;;;9.10;98.75;98412.47;3223830;23;19972;-91
2022/05/11 03:11:17;;;;;;;;;;;;;;;9.08;98.24;98413.41;3220800;23;19950;-90
2022/05/11 03:12:33;;;;;;;;;;;;;;;9.08;98.48;98411.66;3211158;23;19924;-90
2022/05/11 03:13:49;;;;;;;;;;;;;;;9.09;98.42;98418.59;3210711;23;19927;-89
2022/05/11 03:15:06;;;;;;;;;;;;;;;9.06;98.91;98415.19;3210343;23;20347;-90
2022/05/11 03:16:21;;;;;;;;;;;;;;;9.01;99.46;98418.78;3209561;23;19982;-91
2022/05/11 03:17:37;;;;;;;;;;;;;;;9.00;98.68;98417.03;3209669;23;20294;-91
2022/05/11 03:18:52;;;;;;;;;;;;;;;8.99;99.05;98415.31;3210293;23;19999;-90
2022/05/11 03:20:08;;;;;;;;;;;;;;;8.97;98.68;98414.47;3210102;23;19924;-91
2022/05/11 03:21:24;;;;;;;;;;;;;;;8.95;98.66;98415.44;3213981;23;19928;-91
2022/05/11 03:22:40;;;;;;;;;;;;;;;8.89;98.51;98417.25;3210189;23;20025;-91
2022/05/11 03:23:56;;;;;;;;;;;;;;;8.85;98.54;98415.63;3209331;23;19928;-90
2022/05/11 03:25:11;;;;;;;;;;;;;;;8.86;98.40;98421.69;3209477;23;20140;-91
2022/05/11 03:26:26;;;;;;;;;;;;;;;8.84;98.32;98419.13;3209658;23;20269;-91
2022/05/11 03:27:42;;;;;;;;;;;;;;;8.81;98.09;98415.72;3210248;23;20366;-93
2022/05/11 03:28:57;;;;;;;;;;;;;;;8.77;98.37;98414.91;3211488;23;19923;-91
2022/05/11 03:30:13;;;;;;;;;;;;;;;8.74;98.84;98420.22;3211937;23;19924;-91
2022/05/11 03:31:29;;;;;;;;;;;;;;;8.75;99.41;98419.31;3215158;23;19979;-92
2022/05/11 03:34:36;;;;;;;;;;;;;;;8.78;99.21;98415.78;3211434;23;19924;-91
2022/05/11 03:35:52;;;;;;;;;;;;;;;8.78;98.53;98414.03;3211498;23;19928;-92
2022/05/11 03:37:09;;;;;;;;;;;;;;;8.77;98.23;98420.13;3210171;23;20051;-91
2022/05/11 03:38:24;;;;;;;;;;;;;;;8.79;98.69;98420.13;3208978;23;19924;-90
2022/05/11 03:39:41;;;;;;;;;;;;;;;8.79;99.02;98420.13;3209415;23;19927;-90
2022/05/11 03:40:56;;;;;;;;;;;;;;;8.79;98.93;98423.56;3210109;23;20461;-89
2022/05/11 03:42:13;;;;;;;;;;;;;;;8.78;98.69;98421.00;3210823;23;19986;-90
2022/05/11 03:43:29;;;;;;;;;;;;;;;8.78;99.25;98426.22;3210441;23;19947;-90
2022/05/11 03:44:45;;;;;;;;;;;;;;;8.76;99.28;98421.03;3210134;23;19923;-92
2022/05/11 03:46:01;;;;;;;;;;;;;;;8.78;100.00;98426.22;3209338;23;20741;-91
2022/05/11 03:47:16;;;;;;;;;;;;;;;8.76;99.73;98421.03;3208464;23;19928;-90
2022/05/11 03:48:31;;;;;;;;;;;;;;;8.76;100.00;98427.13;3209866;23;20321;-90
2022/05/11 03:49:47;;;;;;;;;;;;;;;8.79;100.00;98422.72;3209610;23;20285;-90
2022/05/11 03:51:03;;;;;;;;;;;;;;;8.80;100.00;98430.53;3209972;23;19943;-92
2022/05/11 03:52:18;;;;;;;;;;;;;;;8.79;100.00;98427.94;3209232;23;19979;-90
2022/05/11 03:53:36;;;;;;;;;;;;;;;8.80;100.00;98424.44;3207761;23;19954;-90
2022/05/11 03:54:51;;;;;;;;;;;;;;;8.76;100.00;98427.13;3208332;23;19959;-91
2022/05/11 03:56:06;;;;;;;;;;;;;;;8.78;100.00;98427.06;3210600;23;19927;-91
2022/05/11 03:57:22;;;;;;;;;;;;;;;8.80;100.00;98425.31;3209341;23;19934;-90
2022/05/11 03:58:37;;;;;;;;;;;;;;;8.84;100.00;98436.53;3208884;23;20294;-89
2022/05/11 03:59:53;;;;;;;;;;;;;;;8.83;100.00;98425.25;3209936;23;19970;-92
2022/05/11 04:01:08;;;;;;;;;;;;;;;8.86;100.00;98422.56;3217039;23;19960;-91
2022/05/11 04:02:24;;;;;;;;;;;;;;;8.84;100.00;98429.56;3210131;23;19924;-90
2022/05/11 04:03:39;;;;;;;;;;;;;;;8.86;100.00;98427.78;3207820;23;19924;-88
2022/05/11 04:04:55;;;;;;;;;;;;;;;8.83;100.00;98432.19;3207891;23;20340;-86
2022/05/11 04:06:10;;;;;;;;;;;;;;;8.82;100.00;98426.13;3208030;23;19919;-87
2022/05/11 04:07:26;;;;;;;;;;;;;;;8.84;100.00;98432.19;3207760;23;19963;-87
2022/05/11 04:08:42;;;;;;;;;;;;;;;8.89;100.00;98425.09;3207917;23;19924;-87
2022/05/11 04:09:57;;;;;;;;;;;;;;;8.96;100.00;98427.59;3207844;23;20741;-89
2022/05/11 04:11:13;;;;;;;;;;;;;;;8.97;100.00;98432.75;3208186;23;19924;-90
2022/05/11 04:12:30;;;;;;;;;;;;;;;9.02;100.00;98433.53;3208210;23;19947;-88
2022/05/11 04:13:45;;;;;;;;;;;;;;;9.05;100.00;98432.59;3208629;23;20391;-89
2022/05/11 04:15:01;;;;;;;;;;;;;;;9.07;100.00;98436.03;3209638;23;19942;-90
2022/05/11 04:16:16;;;;;;;;;;;;;;;9.09;100.00;98431.66;3209690;23;19924;-89
2022/05/11 04:17:32;;;;;;;;;;;;;;;9.08;100.00;98435.16;3210304;23;19952;-88
2022/05/11 04:18:48;;;;;;;;;;;;;;;9.14;100.00;98432.41;3210164;23;19942;-89
2022/05/11 04:20:04;;;;;;;;;;;;;;;9.18;100.00;98436.66;3210320;23;19946;-89
2022/05/11 04:21:19;;;;;;;;;;;;;;;9.23;100.00;98433.09;3209636;23;19923;-89
2022/05/11 04:22:35;;;;;;;;;;;;;;;9.27;100.00;98429.53;3209730;23;19943;-90
2022/05/11 04:23:51;;;;;;;;;;;;;;;9.34;100.00;98431.06;3210937;23;20340;-90
2022/05/11 04:25:07;;;;;;;;;;;;;;;9.43;100.00;98425.66;3211368;23;19924;-90
2022/05/11 04:26:22;;;;;;;;;;;;;;;9.42;100.00;98429.16;3211242;23;19920;-90
2022/05/11 04:27:38;;;;;;;;;;;;;;;9.47;100.00;98427.28;3211991;23;19950;-90
2022/05/11 04:28:54;;;;;;;;;;;;;;;9.47;100.00;98427.28;3210756;23;19990;-89
2022/05/11 04:30:10;;;;;;;;;;;;;;;9.49;100.00;98429.88;3209357;23;19930;-91
2022/05/11 04:31:25;;;;;;;;;;;;;;;9.51;100.00;98427.22;3209364;23;19931;-90
2022/05/11 04:32:40;;;;;;;;;;;;;;;9.52;100.00;98427.19;3209694;23;19994;-90
2022/05/11 04:33:56;;;;;;;;;;;;;;;9.55;100.00;98431.47;3210129;23;20664;-90
2022/05/11 04:35:11;;;;;;;;;;;;;;;9.59;100.00;98433.13;3210220;23;19924;-90
2022/05/11 04:36:28;;;;;;;;;;;;;;;9.60;100.00;98429.59;3210466;23;20045;-90
2022/05/11 04:37:44;;;;;;;;;;;;;;;9.64;100.00;98426.03;3209427;23;20000;-91
2022/05/11 04:38:59;;;;;;;;;;;;;;;9.68;100.00;98422.44;3210322;23;19924;-90
2022/05/11 04:41:14;;;;;;;13.00;9.07;;;;;;;9.77;100.00;98426.59;2634356;27;20604;-88
2022/05/11 04:42:30;;;;;;;13.18;9.93;;;;;;;9.83;100.00;98426.41;2627379;27;20078;-86
2022/05/11 04:43:46;;;;;;;13.45;10.55;;;;;;;9.90;100.00;98427.13;2632567;28;20040;-83
2022/05/11 04:45:01;;;;;;;13.40;9.85;;;;;;;9.96;100.00;98429.59;2631434;28;20050;-82
2022/05/11 04:46:17;;;;;;;11.77;9.20;;;;;;;10.01;100.00;98422.47;2631722;28;20051;-83
2022/05/11 04:47:32;;;;;;;13.25;10.27;;;;;;;10.08;100.00;98423.19;2631034;28;20416;-85
2022/05/11 04:48:48;;;;;;;13.88;10.43;;;;;;;10.15;100.00;98422.13;2632028;28;20050;-85
2022/05/11 04:50:04;;;;;;;13.25;9.45;;;;;;;10.30;100.00;98423.47;2630130;28;20047;-83
2022/05/11 04:51:19;;;;;;;11.68;9.65;;;;;;;10.37;100.00;98420.69;2631795;28;20052;-84
2022/05/11 04:52:35;;;;;;;15.05;10.63;;;;;;;10.47;100.00;98418.69;2629283;28;20112;-84
2022/05/11 04:53:51;;;;;;;12.57;10.20;;;;;;;10.53;100.00;98418.50;2629763;28;20071;-83
2022/05/11 04:55:09;;;;;;;14.80;9.82;;;;;;;10.57;100.00;98423.63;2631056;28;20048;-83
2022/05/11 04:56:24;;;;;;;13.00;9.75;;;;;;;10.78;100.00;98418.69;2629774;28;20056;-84
2022/05/11 04:57:40;;;;;;;13.82;9.85;;;;;;;10.78;100.00;98416.06;2629589;28;20078;-84
2022/05/11 04:58:58;;;;;;;15.52;10.23;;;;;;;10.79;100.00;98419.53;2631268;28;20040;-83
2022/05/11 05:00:14;;;;;;;12.48;9.57;;;;;;;10.85;99.66;98417.59;2627942;28;20048;-85
2022/05/11 05:01:29;;;;;;;14.75;9.75;;;;;;;10.96;99.45;98419.03;2628852;28;20048;-83
2022/05/11 05:02:45;;;;;;;17.95;10.50;;;;;;;11.01;99.69;98419.75;2629853;28;20056;-84
2022/05/11 05:04:01;;;;;;;14.88;10.23;;;;;;;11.02;99.88;98416.22;2631659;28;20058;-83
2022/05/11 05:05:17;;;;;;;18.92;10.68;;;;;;;11.08;99.55;98413.44;2631422;28;20770;-86
2022/05/11 05:06:33;;;;;;;18.10;9.80;;;;;;;11.11;99.78;98410.72;2630921;28;20079;-83
2022/05/11 05:07:49;;;;;;;16.00;11.07;;;;;;;11.14;100.00;98415.84;2628679;28;20071;-83
2022/05/11 05:09:06;;;;;;;19.30;10.02;;;;;;;11.19;100.00;98413.09;2631762;28;20405;-83
2022/05/11 05:10:22;;;;;;;15.23;9.88;;;;;;;11.22;99.88;98418.22;2630191;28;20054;-86
2022/05/11 05:11:37;;;;;;;16.52;9.65;;;;;;;11.25;99.98;98417.28;2631850;28;20048;-84
2022/05/11 05:12:53;;;;;;;14.93;10.35;;;;;;;11.32;100.00;98418.84;2631651;28;20075;-84
2022/05/11 05:14:08;;;;;;;14.35;9.77;;;;;;;11.41;100.00;98422.91;2629031;28;20317;-84
2022/05/11 05:15:24;;;;;;;15.70;10.02;;;;;;;11.42;100.00;98422.84;2630865;28;20047;-83
2022/05/11 05:16:40;;;;;;;11.90;10.02;;;;;;;11.44;100.00;98428.91;2629750;28;20407;-83
2022/05/11 05:17:55;;;;;;;11.30;9.27;;;;;;;11.49;100.00;98425.28;2631649;28;20574;-85
2022/05/11 05:19:11;;;;;;;12.00;9.95;;;;;;;11.54;100.00;98426.88;2629593;28;20133;-87
2022/05/11 05:20:28;;;;;;;13.77;10.27;;;;;;;11.62;100.00;98424.00;2626682;28;20399;-84
2022/05/11 05:21:43;;;;;;;14.63;10.10;;;;;;;11.72;100.00;98424.53;2630742;28;20080;-84
2022/05/11 05:22:59;;;;;;;13.63;9.60;;;;;;;11.81;99.35;98424.25;2630140;28;20047;-83
2022/05/11 05:24:14;;;;;;;13.60;9.98;;;;;;;11.85;98.16;98422.34;2629699;28;20055;-85
2022/05/11 05:25:30;;;;;;;12.88;9.10;;;;;;;11.95;97.40;98421.16;2629753;28;20048;-83
2022/05/11 05:26:46;;;;;;;13.77;10.35;;;;;;;12.04;97.44;98419.16;2631247;28;20053;-90
2022/05/11 05:31:11;;;;;;;13.02;10.10;;;;;;;12.33;95.81;98418.13;2628280;28;20058;-84
2022/05/11 05:32:26;;;;;;;13.10;10.02;;;;;;;12.35;95.69;98413.66;2629537;28;20082;-84
2022/05/11 05:33:42;;;;;;;15.10;10.00;;;;;;;12.53;93.68;98413.94;2630480;28;20154;-86
2022/05/11 05:35:00;;;;;;;13.70;9.52;;;;;;;12.52;93.22;98414.84;2629135;28;20059;-86
2022/05/11 05:36:16;;;;;;;13.30;9.57;;;;;;;12.66;91.69;98415.22;2629679;28;20444;-86
2022/05/11 05:37:31;;;;;;;14.90;9.95;;;;;;;12.78;91.95;98418.25;2631611;28;20044;-87
2022/05/11 05:38:47;;;;;;;12.80;9.82;;;;;;;12.74;93.89;98425.44;2629856;28;20338;-86
2022/05/11 05:40:05;;;;;;;12.00;9.27;;;;;;;12.77;92.04;98412.16;2631115;28;20097;-84
2022/05/11 05:41:21;;;;;;;11.85;9.43;;;;;;;12.85;91.56;98417.13;2629073;28;20075;-86
2022/05/11 05:42:37;;;;;;;11.40;9.23;;;;;;;12.82;92.39;98415.47;2629544;28;20047;-85
2022/05/11 05:43:53;;;;;;;13.02;8.95;;;;;;;12.85;92.10;98423.25;2629828;28;20052;-84
2022/05/11 05:45:09;;;;;;;10.95;9.20;;;;;;;12.83;91.86;98421.59;2630697;28;20725;-83
2022/05/11 05:46:25;;;;;;;13.13;9.85;;;;;;;12.90;90.73;98423.06;2628828;28;20056;-86
2022/05/11 05:47:41;;;;;;;13.45;9.90;;;;;;;12.95;91.45;98417.63;2630406;28;20045;-85
2022/05/11 05:48:56;;;;;;;12.32;9.63;;;;;;;12.94;91.53;98419.44;2630182;28;20131;-85
2022/05/11 05:50:12;;;;;;;14.70;9.65;;;;;;;12.97;92.53;98429.81;2631931;28;20410;-84
2022/05/11 05:51:27;;;;;;;13.88;9.48;;;;;;;13.07;90.72;98425.06;2628448;28;20462;-84
2022/05/11 05:52:45;;;;;;;11.20;9.00;;;;;;;13.15;90.42;98427.38;2620897;28;20483;-83
2022/05/11 05:54:00;;;;;;;11.35;9.43;;;;;;;13.18;91.87;98426.41;2623470;28;20079;-85
2022/05/11 05:55:18;;;;;;;10.95;9.85;;;;;;;13.22;92.18;98428.00;2622892;28;20049;-84
2022/05/11 05:56:33;;;;;;;12.85;9.80;;;;;;;13.33;90.70;98430.19;2624048;28;20047;-84
2022/05/11 05:57:49;;;;;;;12.45;9.40;;;;;;;13.35;90.92;98420.50;2623666;28;20414;-84
2022/05/11 05:59:05;;;;;;;11.45;9.45;;;;;;;13.42;90.66;98425.47;2623485;28;20048;-86
2022/05/11 06:00:22;;;;;;;10.80;9.68;;;;;;;13.42;91.05;98428.09;2621530;28;20487;-83
2022/05/11 06:01:38;;;;;;;15.25;9.85;;;;;;;13.38;91.39;98423.84;2622432;28;20052;-84
2022/05/11 06:02:54;;;;;;;11.30;9.43;;;;;;;13.42;90.93;98425.47;2621565;28;20048;-85
2022/05/11 06:04:10;;;;;;;11.75;9.05;;;;;;;13.50;89.01;98427.81;2623206;28;20055;-84
2022/05/11 06:05:28;;;;;;;11.80;9.05;;;;;;;13.61;87.79;98427.38;2623959;28;20616;-85
2022/05/11 06:06:43;;;;;;;12.02;9.85;;;;;;;13.62;88.04;98429.06;2622921;28;20052;-86
2022/05/11 06:07:59;;;;;;;13.13;9.70;;;;;;;13.62;87.55;98426.44;2624478;28;20052;-85
2022/05/11 06:09:15;;;;;;;11.10;9.15;;;;;;;13.67;87.24;98421.84;2621470;28;20080;-84
2022/05/11 06:10:30;;;;;;;11.32;9.60;;;;;;;13.75;87.25;98429.41;2631150;28;20056;-87
2022/05/11 06:11:46;;;;;;;9.73;8.55;;;;;;;13.81;86.82;98428.31;2627244;28;20048;-85
2022/05/11 06:13:02;;;;;;;11.80;9.75;;;;;;;13.84;86.97;98423.78;2622379;28;20091;-86
2022/05/11 06:14:17;;;;;;;12.77;9.48;;;;;;;13.88;87.89;98424.53;2621367;28;20051;-86
2022/05/11 06:15:35;;;;;;;11.52;9.02;;;;;;;13.98;86.85;98422.34;2621501;28;20057;-86
2022/05/11 06:16:53;;;;;;;15.82;9.32;;;;;;;14.00;85.78;98425.78;2624758;28;20094;-85
2022/05/11 06:18:10;;;;;;;10.95;8.98;;;;;;;13.96;86.94;98424.19;2622615;28;20090;-84
2022/05/11 06:19:27;;;;;;;10.73;9.57;;;;;;;14.00;86.21;98431.03;2621139;28;20102;-84
2022/05/11 06:20:42;;;;;;;10.63;9.50;;;;;;;14.02;86.49;98433.63;2624234;28;20165;-83
2022/05/11 06:21:58;;;;;;;11.20;8.75;;;;;;;14.07;86.65;98427.25;2622788;28;20593;-86
2022/05/11 06:23:13;;;;;;;9.75;8.75;;;;;;;14.09;86.71;98421.88;2623112;28;20058;-85
2022/05/11 06:24:30;;;;;;;10.60;9.18;;;;;;;14.10;86.22;98421.84;2621097;28;20575;-84
2022/05/11 06:25:49;;;;;;;13.80;9.18;;;;;;;14.05;87.52;98429.09;2622090;28;20051;-85
2022/05/11 06:27:05;;;;;;;9.75;8.75;;;;;;;14.04;86.22;98416.84;2623402;28;20078;-84
2022/05/11 06:28:21;;;;;;;11.48;9.88;;;;;;;14.10;87.25;98421.84;2622737;28;20072;-86
2022/05/11 06:29:37;;;;;;;10.68;9.43;;;;;;;14.05;87.05;98422.94;2622502;28;20495;-86
2022/05/11 06:30:52;;;;;;;12.23;9.80;;;;;;;14.22;87.66;98419.59;2620814;28;20498;-86
2022/05/11 06:32:08;;;;;;;12.85;8.85;;;;;;;14.32;87.44;98413.00;2622265;28;20119;-87
2022/05/11 06:33:24;;;;;;;10.63;8.90;;;;;;;14.29;88.02;98412.28;2622631;28;20050;-88
2022/05/11 06:34:39;;;;;;;12.00;9.38;;;;;;;14.37;87.05;98411.03;2624403;28;20126;-86